Time;durP1;ratioP1;P1;durP2;ratioP2;P2;SDS_P1;SDS_P2;PMS_P1;PMS_P2;Temp;Humidity;BMP_temperature;BMP_pressure;BME280_temperature;BME280_humidity;BME280_pressure;Samples;Min_cycle;Max_cycle;Signal;HPM_P1;HPM_P2
2022/07/19 00:00:53;;;;;;;10.80;7.80;;;27.10;45.90;;;;;;4698794;56;21021;-29
2022/07/19 00:05:54;;;;;;;9.13;8.20;;;27.10;45.90;;;;;;4674646;56;21028;-29
2022/07/19 00:10:55;;;;;;;9.23;8.20;;;27.10;46.00;;;;;;4963420;56;21483;-31
2022/07/19 00:15:56;;;;;;;9.23;8.23;;;27.10;46.00;;;;;;4762947;56;21169;-36
2022/07/19 00:20:57;;;;;;;8.65;7.78;;;27.10;45.90;;;;;;4614902;60;21104;-34
2022/07/19 00:25:58;;;;;;;8.90;7.97;;;27.10;46.00;;;;;;4661657;56;21017;-34
2022/07/19 00:30:59;;;;;;;8.85;7.95;;;27.10;46.20;;;;;;4645311;56;21013;-33
2022/07/19 00:35:59;;;;;;;9.00;8.05;;;27.10;46.00;;;;;;4673885;56;21068;-30
2022/07/19 00:41:02;;;;;;;8.65;7.78;;;27.10;46.30;;;;;;4672873;56;21060;-33
2022/07/19 00:46:02;;;;;;;7.85;7.05;;;27.10;46.10;;;;;;4792217;56;21073;-34
2022/07/19 00:51:03;;;;;;;8.73;7.43;;;27.10;46.20;;;;;;4638261;56;21077;-33
2022/07/19 00:56:06;;;;;;;8.18;7.37;;;27.10;46.30;;;;;;4681887;56;21028;-32
2022/07/19 01:01:08;;;;;;;8.90;8.00;;;27.10;46.20;;;;;;4775927;56;21064;-29
2022/07/19 01:06:10;;;;;;;8.07;7.28;;;27.10;46.20;;;;;;4637688;56;21013;-30
2022/07/19 01:11:10;;;;;;;8.07;7.25;;;27.10;46.20;;;;;;4839471;56;21594;-33
2022/07/19 01:16:11;;;;;;;7.80;7.00;;;27.10;46.30;;;;;;4614362;60;21100;-31
2022/07/19 01:21:19;;;;;;;7.75;7.00;;;27.10;46.20;;;;;;4654582;56;21092;-29
2022/07/19 01:26:20;;;;;;;8.40;7.50;;;27.10;46.40;;;;;;4871766;56;21016;-32
2022/07/19 01:31:21;;;;;;;7.62;6.50;;;27.10;46.50;;;;;;4624866;56;21507;-35
2022/07/19 01:36:21;;;;;;;7.90;7.10;;;27.10;46.40;;;;;;4671017;56;21072;-35
2022/07/19 01:41:22;;;;;;;7.53;6.80;;;27.00;46.30;;;;;;4854202;56;21008;-32
2022/07/19 01:46:23;;;;;;;7.37;6.55;;;27.10;46.30;;;;;;4750869;56;21049;-31
2022/07/19 01:51:24;;;;;;;7.40;6.70;;;27.10;46.30;;;;;;4640728;56;21016;-29
2022/07/19 01:56:25;;;;;;;7.47;6.53;;;27.00;46.50;;;;;;4762611;56;21017;-30
2022/07/19 02:01:25;;;;;;;7.18;6.30;;;27.00;46.30;;;;;;4710834;56;21017;-30
2022/07/19 02:06:26;;;;;;;7.40;6.70;;;27.10;46.50;;;;;;4709416;56;21470;-30
2022/07/19 02:11:37;;;;;;;7.43;6.65;;;27.00;46.50;;;;;;4753714;56;21045;-30
2022/07/19 02:16:39;;;;;;;7.00;6.25;;;27.00;46.40;;;;;;4615044;60;21088;-29
2022/07/19 02:21:40;;;;;;;7.50;6.78;;;27.00;46.40;;;;;;4643143;56;21040;-30
2022/07/19 02:26:41;;;;;;;6.57;5.97;;;27.00;46.50;;;;;;4672754;56;21009;-30
2022/07/19 02:31:41;;;;;;;8.13;7.28;;;27.00;46.40;;;;;;4709323;56;21024;-32
2022/07/19 02:36:42;;;;;;;6.87;6.18;;;27.00;46.60;;;;;;4639940;56;21016;-28
2022/07/19 02:41:43;;;;;;;6.68;5.97;;;27.00;46.50;;;;;;4653256;56;21633;-29
2022/07/19 02:46:44;;;;;;;6.47;5.78;;;27.00;46.70;;;;;;4676608;56;21084;-31
2022/07/19 02:51:45;;;;;;;6.30;5.70;;;27.00;46.40;;;;;;4757074;56;21024;-30
2022/07/19 02:56:46;;;;;;;6.60;5.82;;;27.00;46.60;;;;;;4664912;56;21016;-31
2022/07/19 03:01:46;;;;;;;7.43;6.50;;;27.00;46.50;;;;;;4615491;60;21005;-30
2022/07/19 03:06:47;;;;;;;6.93;6.22;;;27.00;46.20;;;;;;4647074;56;21082;-32
2022/07/19 03:11:48;;;;;;;7.37;5.95;;;27.00;46.30;;;;;;4767820;56;21479;-34
2022/07/19 03:16:49;;;;;;;7.62;5.97;;;27.00;46.20;;;;;;5073405;56;21020;-30
2022/07/19 03:21:49;;;;;;;5.93;5.32;;;27.00;46.40;;;;;;4673825;56;21080;-32
2022/07/19 03:26:50;;;;;;;5.57;5.07;;;27.00;46.20;;;;;;4688349;56;21080;-32
2022/07/19 03:31:51;;;;;;;7.12;5.72;;;27.00;46.10;;;;;;4678588;56;21017;-34
2022/07/19 03:36:52;;;;;;;5.95;5.37;;;27.00;46.20;;;;;;4669416;56;21595;-33
2022/07/19 03:41:53;;;;;;;6.10;5.47;;;27.00;46.10;;;;;;4794596;56;21024;-32
2022/07/19 03:46:53;;;;;;;6.00;5.40;;;27.00;45.80;;;;;;4744432;56;21031;-30
2022/07/19 03:51:54;;;;;;;5.82;5.22;;;27.00;45.90;;;;;;4834412;56;21026;-31
2022/07/19 03:56:55;;;;;;;6.10;5.50;;;27.00;45.80;;;;;;4634971;56;21020;-30
2022/07/19 04:01:56;;;;;;;5.72;5.20;;;27.00;45.90;;;;;;5000268;56;21040;-31
2022/07/19 04:06:57;;;;;;;6.97;4.85;;;26.90;45.70;;;;;;4631965;56;21084;-30
2022/07/19 04:11:57;;;;;;;6.53;5.35;;;27.00;45.80;;;;;;4678843;56;21085;-31
2022/07/19 04:16:58;;;;;;;5.62;5.00;;;26.90;45.60;;;;;;4813291;56;21602;-29
2022/07/19 04:21:59;;;;;;;5.60;4.80;;;26.90;45.80;;;;;;4614951;60;21594;-28
2022/07/19 04:27:00;;;;;;;5.97;4.80;;;26.90;45.60;;;;;;4620741;56;21024;-30
2022/07/19 04:32:01;;;;;;;5.82;5.03;;;26.90;45.50;;;;;;4885367;56;21083;-29
2022/07/19 04:37:02;;;;;;;5.30;4.80;;;26.90;45.50;;;;;;4678270;56;21008;-29
2022/07/19 04:42:02;;;;;;;5.80;5.12;;;26.90;45.60;;;;;;4615447;57;21076;-36
2022/07/19 04:47:03;;;;;;;5.97;4.75;;;26.90;45.40;;;;;;4667933;56;20988;-31
2022/07/19 04:52:05;;;;;;;6.60;4.72;;;26.90;45.40;;;;;;4855352;56;21040;-34
2022/07/19 04:57:06;;;;;;;5.30;4.80;;;26.90;45.40;;;;;;4768266;56;21486;-33
2022/07/19 05:02:07;;;;;;;5.43;4.65;;;26.90;45.40;;;;;;4707896;56;21012;-29
2022/07/19 05:07:08;;;;;;;6.05;4.35;;;26.90;45.50;;;;;;4798264;56;21021;-32
2022/07/19 05:12:10;;;;;;;6.00;4.50;;;26.90;45.20;;;;;;4675963;56;21025;-30
2022/07/19 05:17:12;;;;;;;7.62;4.85;;;26.80;45.10;;;;;;4615538;60;21561;-32
2022/07/19 05:22:13;;;;;;;5.62;4.93;;;26.80;45.10;;;;;;4628494;56;21626;-30
2022/07/19 05:27:13;;;;;;;5.87;4.93;;;26.80;45.00;;;;;;4720091;56;21032;-29
2022/07/19 05:32:14;;;;;;;5.97;4.60;;;26.80;45.10;;;;;;4651376;56;21025;-29
2022/07/19 05:37:15;;;;;;;6.30;5.05;;;26.90;45.10;;;;;;4615900;56;21531;-30
2022/07/19 05:42:16;;;;;;;5.62;5.03;;;26.90;45.10;;;;;;4755795;56;21031;-29
2022/07/19 05:47:17;;;;;;;6.07;4.82;;;26.90;45.10;;;;;;4724147;56;21000;-29
2022/07/19 05:52:18;;;;;;;5.55;4.75;;;26.80;45.00;;;;;;4851604;56;21510;-29
2022/07/19 05:57:19;;;;;;;8.50;5.35;;;26.80;45.70;;;;;;4766773;56;21032;-31
2022/07/19 06:02:20;;;;;;;8.00;5.47;;;26.80;44.80;;;;;;4726606;56;21009;-30
2022/07/19 06:07:21;;;;;;;7.70;5.50;;;26.80;45.00;;;;;;4931221;56;21570;-30
2022/07/19 06:12:22;;;;;;;6.00;5.40;;;26.80;45.00;;;;;;4614844;60;21020;-31
2022/07/19 06:17:23;;;;;;;6.80;5.57;;;26.80;44.70;;;;;;4790872;56;21502;-31
2022/07/19 06:22:23;;;;;;;6.37;5.78;;;26.80;44.90;;;;;;4659078;56;21062;-34
2022/07/19 06:27:24;;;;;;;8.52;5.57;;;26.80;44.90;;;;;;4662489;56;21052;-31
2022/07/19 06:32:26;;;;;;;7.68;5.72;;;26.80;45.00;;;;;;4777994;56;21539;-29
2022/07/19 06:37:27;;;;;;;5.65;5.10;;;26.80;45.00;;;;;;4746647;56;21515;-28
2022/07/19 06:42:28;;;;;;;7.05;5.47;;;26.80;45.00;;;;;;4763020;56;21018;-30
2022/07/19 06:47:29;;;;;;;7.05;5.70;;;26.80;44.80;;;;;;4823858;56;21028;-31
2022/07/19 06:52:30;;;;;;;7.75;5.35;;;26.80;44.80;;;;;;4696070;56;21037;-29
2022/07/19 06:57:30;;;;;;;7.60;5.60;;;26.80;44.90;;;;;;4771289;56;21028;-35
2022/07/19 07:02:31;;;;;;;9.60;6.20;;;26.80;44.90;;;;;;4653381;56;21085;-32
2022/07/19 07:07:32;;;;;;;7.18;5.90;;;26.80;44.90;;;;;;4854789;56;21020;-31
2022/07/19 07:12:34;;;;;;;7.05;5.97;;;26.80;44.80;;;;;;4614929;60;21037;-34
2022/07/19 07:17:36;;;;;;;8.48;6.10;;;26.80;44.90;;;;;;4848254;56;21005;-30
2022/07/19 07:22:36;;;;;;;8.88;6.90;;;26.80;44.90;;;;;;4614808;58;21048;-34
2022/07/19 07:27:38;;;;;;;9.07;7.45;;;26.80;44.90;;;;;;4798283;56;21534;-30
2022/07/19 07:32:38;;;;;;;8.73;7.60;;;26.80;44.90;;;;;;4699238;56;21112;-29
2022/07/19 07:37:39;;;;;;;9.00;7.68;;;26.80;44.90;;;;;;4615478;60;21566;-29
2022/07/19 07:42:40;;;;;;;9.05;7.62;;;26.90;45.00;;;;;;4615214;60;21082;-29
2022/07/19 07:47:41;;;;;;;9.63;8.05;;;26.90;45.00;;;;;;4622118;56;21012;-37
2022/07/19 07:52:42;;;;;;;11.20;8.75;;;26.80;44.90;;;;;;4615221;60;21575;-32
2022/07/19 07:57:43;;;;;;;10.38;8.48;;;26.80;44.90;;;;;;4614982;60;21089;-33
2022/07/19 08:02:46;;;;;;;13.35;9.25;;;26.80;44.90;;;;;;4615363;60;21482;-31
2022/07/19 08:07:47;;;;;;;11.60;9.23;;;26.80;45.00;;;;;;4615408;60;20981;-32
2022/07/19 08:12:47;;;;;;;10.20;8.88;;;26.80;45.00;;;;;;4703269;56;21826;-31
2022/07/19 08:17:48;;;;;;;11.90;9.98;;;26.90;45.00;;;;;;4615470;56;21000;-28
2022/07/19 08:22:49;;;;;;;11.70;9.30;;;26.80;45.00;;;;;;4614813;60;21511;-32
2022/07/19 08:27:50;;;;;;;16.33;9.80;;;26.80;45.00;;;;;;4615193;60;21012;-29
2022/07/19 08:32:51;;;;;;;13.18;10.15;;;26.90;45.10;;;;;;4748343;56;21038;-30
2022/07/19 08:37:51;;;;;;;12.35;10.40;;;26.80;45.00;;;;;;4641488;56;21116;-32
2022/07/19 08:42:54;;;;;;;13.52;10.40;;;26.80;45.00;;;;;;4712606;56;21475;-37
2022/07/19 08:47:56;;;;;;;12.85;10.38;;;26.90;45.10;;;;;;4832956;56;21045;-34
2022/07/19 08:52:59;;;;;;;12.27;10.07;;;26.90;45.10;;;;;;4615047;60;21069;-30
2022/07/19 08:58:02;;;;;;;13.38;10.13;;;26.80;45.10;;;;;;4738794;56;21495;-36
2022/07/19 09:03:06;;;;;;;15.57;10.73;;;26.80;45.10;;;;;;4615096;56;21542;-29
2022/07/19 09:08:15;;;;;;;14.30;10.65;;;26.90;45.30;;;;;;4618300;56;20980;-33
2022/07/19 09:13:16;;;;;;;12.85;10.32;;;26.80;45.20;;;;;;4626065;56;21064;-30
2022/07/19 09:18:22;;;;;;;12.55;10.90;;;26.80;45.10;;;;;;4615172;56;21016;-33
2022/07/19 09:23:24;;;;;;;12.55;10.32;;;26.80;45.20;;;;;;4653676;56;21093;-31
2022/07/19 09:28:26;;;;;;;12.68;10.18;;;26.80;45.20;;;;;;4650529;56;21012;-30
2022/07/19 09:33:32;;;;;;;14.27;11.45;;;26.90;45.20;;;;;;4803573;56;21041;-30
2022/07/19 09:38:34;;;;;;;;;;;26.90;45.30;;;;;;4679297;56;21084;-31
2022/07/19 09:43:56;;;;;;;15.00;10.50;;;26.80;45.20;;;;;;4939496;56;20326;-32
2022/07/19 09:49:30;;;;;;;13.48;10.60;;;26.80;45.30;;;;;;4633306;56;21048;-32
2022/07/19 09:54:31;;;;;;;12.80;10.82;;;26.90;45.40;;;;;;4625050;56;21032;-33
2022/07/19 09:59:33;;;;;;;12.48;10.48;;;26.90;45.30;;;;;;4699543;56;21510;-30
2022/07/19 10:04:35;;;;;;;12.93;10.32;;;26.90;45.40;;;;;;4614866;60;21080;-33
2022/07/19 10:09:37;;;;;;;13.55;10.38;;;26.90;45.40;;;;;;4679360;56;21543;-29
2022/07/19 10:14:38;;;;;;;13.35;10.80;;;26.90;45.40;;;;;;4675895;56;21033;-33
2022/07/19 10:19:42;;;;;;;12.18;10.48;;;26.90;45.40;;;;;;4698908;56;21076;-30
2022/07/19 10:24:49;;;;;;;12.77;10.63;;;26.90;45.50;;;;;;4650449;56;21137;-36
2022/07/19 10:30:51;;;;;;;12.85;10.07;;;26.90;45.50;;;;;;4712146;56;21068;-31
2022/07/19 10:35:51;;;;;;;13.18;10.50;;;26.90;45.50;;;;;;4614739;56;21092;-33
2022/07/19 10:40:58;;;;;;;12.48;10.73;;;26.90;45.50;;;;;;4614876;60;21084;-32
2022/07/19 10:46:09;;;;;;;11.70;9.70;;;26.90;45.50;;;;;;4684030;56;21543;-32
2022/07/19 10:51:34;;;;;;;11.25;9.73;;;26.90;45.50;;;;;;4657765;56;21590;-33
2022/07/19 10:56:39;;;;;;;11.98;9.82;;;26.90;45.60;;;;;;4614519;60;21599;-36
2022/07/19 11:02:01;;;;;;;11.73;9.97;;;26.90;45.50;;;;;;4783745;56;21017;-30
2022/07/19 11:08:02;;;;;;;11.85;10.23;;;26.90;45.60;;;;;;4615547;60;21483;-36
2022/07/19 11:13:03;;;;;;;12.27;9.85;;;26.90;45.70;;;;;;4694368;56;21024;-30
2022/07/19 11:18:07;;;;;;;11.63;10.15;;;26.90;45.60;;;;;;4654267;56;21016;-31
2022/07/19 11:23:08;;;;;;;11.57;9.88;;;26.90;45.60;;;;;;4641819;56;21601;-34
2022/07/19 11:28:20;;;;;;;11.73;9.82;;;26.90;45.70;;;;;;4614038;60;21028;-28
2022/07/19 11:33:21;;;;;;;14.13;11.10;;;26.90;45.60;;;;;;4614903;60;21040;-29
2022/07/19 11:38:22;;;;;;;14.30;11.50;;;27.00;43.30;;;;;;4715207;56;21017;-26
2022/07/19 11:43:23;;;;;;;16.92;11.35;;;27.10;41.50;;;;;;4661016;56;21077;-33
2022/07/19 11:48:31;;;;;;;13.20;9.68;;;27.20;42.20;;;;;;4692979;56;21024;-29
2022/07/19 11:53:33;;;;;;;15.77;10.00;;;27.20;40.90;;;;;;4615023;56;21565;-29
2022/07/19 11:58:34;;;;;;;20.08;12.70;;;27.20;40.70;;;;;;4617193;56;21008;-27
2022/07/19 12:03:35;;;;;;;16.67;13.07;;;27.30;40.20;;;;;;4657118;56;21566;-30
2022/07/19 12:08:40;;;;;;;18.05;13.02;;;27.30;39.50;;;;;;4710421;56;21558;-31
2022/07/19 12:13:41;;;;;;;15.45;12.82;;;27.40;39.00;;;;;;4659657;56;21514;-30
2022/07/19 12:18:54;;;;;;;19.90;13.57;;;27.40;38.20;;;;;;4615330;60;21008;-33
2022/07/19 12:24:15;;;;;;;19.35;13.48;;;27.40;38.50;;;;;;4630131;56;21100;-31
2022/07/19 12:29:25;;;;;;;15.13;10.70;;;27.50;37.10;;;;;;4618543;56;21108;-29
2022/07/19 12:34:26;;;;;;;15.27;10.55;;;27.50;37.30;;;;;;4663651;56;21088;-32
2022/07/19 12:39:29;;;;;;;15.50;10.70;;;27.50;37.60;;;;;;4707646;56;21079;-28
2022/07/19 12:44:31;;;;;;;15.45;10.15;;;27.60;38.30;;;;;;4657807;56;21069;-28
2022/07/19 12:49:46;;;;;;;14.90;11.10;;;27.60;38.00;;;;;;4641318;56;21041;-28
2022/07/19 12:54:47;;;;;;;14.80;10.10;;;27.60;38.30;;;;;;4859600;56;21016;-29
2022/07/19 12:59:48;;;;;;;14.50;10.02;;;27.60;38.90;;;;;;4668437;56;21622;-30
2022/07/19 13:04:49;;;;;;;14.65;9.88;;;27.60;39.40;;;;;;4665371;56;21049;-32
2022/07/19 13:09:50;;;;;;;14.65;9.98;;;27.50;39.50;;;;;;4789904;56;21017;-29
2022/07/19 13:14:51;;;;;;;13.98;9.60;;;27.50;39.40;;;;;;4615791;56;21512;-29
2022/07/19 13:19:52;;;;;;;13.77;9.63;;;27.50;40.20;;;;;;4655137;56;21054;-29
2022/07/19 13:24:52;;;;;;;12.73;9.38;;;27.50;39.90;;;;;;4695161;56;21048;-28
2022/07/19 13:29:53;;;;;;;11.77;9.27;;;27.40;40.00;;;;;;4615241;60;21024;-32
2022/07/19 13:34:54;;;;;;;11.75;9.18;;;27.40;40.20;;;;;;4692387;56;21081;-29
2022/07/19 13:39:55;;;;;;;12.13;9.15;;;27.40;40.40;;;;;;4770005;56;21017;-29
2022/07/19 13:44:56;;;;;;;12.40;9.07;;;27.30;40.50;;;;;;4632940;56;21028;-29
2022/07/19 13:49:58;;;;;;;14.32;9.57;;;27.30;40.70;;;;;;4906504;56;21025;-29
2022/07/19 13:54:59;;;;;;;9.90;8.68;;;27.30;40.80;;;;;;4614721;60;21557;-29
2022/07/19 14:00:00;;;;;;;13.02;8.88;;;27.30;40.90;;;;;;4630926;56;21125;-28
2022/07/19 14:05:01;;;;;;;11.60;9.30;;;27.30;41.10;;;;;;4960526;56;22207;-34
2022/07/19 14:10:03;;;;;;;12.55;8.95;;;27.30;41.20;;;;;;4615114;60;21096;-28
2022/07/19 14:15:07;;;;;;;14.02;8.90;;;27.30;41.30;;;;;;4785000;56;21479;-32
2022/07/19 14:20:10;;;;;;;10.80;8.57;;;27.20;41.30;;;;;;4614656;60;21105;-33
2022/07/19 14:25:10;;;;;;;9.85;7.87;;;27.20;41.50;;;;;;4625661;56;21040;-29
2022/07/19 14:30:11;;;;;;;10.35;8.40;;;27.20;41.60;;;;;;4646272;56;21072;-31
2022/07/19 14:35:12;;;;;;;10.90;8.60;;;27.20;41.80;;;;;;4851022;56;21570;-30
2022/07/19 14:40:14;;;;;;;11.30;8.82;;;27.20;41.80;;;;;;4679101;56;21022;-29
2022/07/19 14:45:15;;;;;;;9.82;8.20;;;27.20;41.90;;;;;;4742233;56;21036;-30
2022/07/19 14:50:16;;;;;;;9.82;8.60;;;27.20;42.00;;;;;;4675953;56;21060;-30
2022/07/19 14:55:16;;;;;;;11.38;8.13;;;27.20;42.10;;;;;;4686410;56;21020;-32
2022/07/19 15:00:17;;;;;;;8.85;7.95;;;27.20;42.20;;;;;;4646413;56;21052;-33
2022/07/19 15:05:18;;;;;;;10.35;9.00;;;27.20;42.30;;;;;;4626084;56;21024;-37
2022/07/19 15:10:19;;;;;;;10.25;8.45;;;27.20;42.30;;;;;;4626190;56;21471;-29
2022/07/19 15:15:20;;;;;;;10.52;8.50;;;27.20;42.30;;;;;;4614356;60;21024;-32
2022/07/19 15:20:22;;;;;;;9.52;7.78;;;27.20;42.40;;;;;;4615007;60;21096;-30
2022/07/19 15:25:23;;;;;;;9.32;7.95;;;27.20;42.50;;;;;;4656337;56;21463;-34
2022/07/19 15:30:23;;;;;;;12.02;9.00;;;27.20;42.50;;;;;;4637261;56;21099;-33
2022/07/19 15:35:25;;;;;;;10.13;7.87;;;27.20;42.50;;;;;;4647401;56;21090;-30
2022/07/19 15:40:25;;;;;;;8.70;7.78;;;27.20;42.50;;;;;;4615609;58;21502;-31
2022/07/19 15:45:26;;;;;;;9.45;8.27;;;27.20;42.60;;;;;;4642969;56;21092;-31
2022/07/19 15:50:27;;;;;;;9.65;8.07;;;27.20;42.60;;;;;;4738235;56;21028;-30
2022/07/19 15:55:28;;;;;;;8.65;7.70;;;27.20;42.60;;;;;;4625379;56;21040;-31
2022/07/19 16:00:30;;;;;;;8.77;7.87;;;27.20;42.70;;;;;;4659162;56;21044;-30
2022/07/19 16:05:31;;;;;;;8.55;7.57;;;27.20;42.80;;;;;;4615443;60;21471;-29
2022/07/19 16:10:32;;;;;;;10.48;8.40;;;27.20;42.90;;;;;;4615303;60;21072;-35
2022/07/19 16:15:33;;;;;;;9.27;7.95;;;27.20;42.90;;;;;;4624450;56;21123;-36
2022/07/19 16:20:34;;;;;;;8.55;7.65;;;27.20;42.90;;;;;;4774209;56;21115;-30
2022/07/19 16:25:34;;;;;;;9.57;7.87;;;27.20;43.00;;;;;;4688667;56;21024;-30
2022/07/19 16:30:36;;;;;;;9.93;8.20;;;27.20;43.00;;;;;;4658176;56;21025;-31
2022/07/19 16:35:37;;;;;;;9.80;7.87;;;27.20;43.10;;;;;;4653488;56;21036;-33
2022/07/19 16:40:38;;;;;;;8.90;7.60;;;27.20;43.10;;;;;;4645780;56;21040;-30
2022/07/19 16:45:40;;;;;;;8.23;7.43;;;27.20;43.10;;;;;;4806654;56;21064;-37
2022/07/19 16:50:41;;;;;;;8.90;7.85;;;27.20;43.10;;;;;;4726705;56;21522;-33
2022/07/19 16:55:42;;;;;;;8.85;7.53;;;27.20;43.10;;;;;;4903077;56;21578;-35
2022/07/19 17:00:43;;;;;;;9.52;7.75;;;27.20;43.10;;;;;;4629005;56;21065;-32
2022/07/19 17:05:44;;;;;;;9.95;7.95;;;27.20;43.20;;;;;;4697638;56;21012;-32
2022/07/19 17:10:45;;;;;;;10.25;7.87;;;27.20;43.30;;;;;;4715331;56;21574;-34
2022/07/19 17:15:45;;;;;;;8.63;7.72;;;27.20;43.20;;;;;;4614310;60;21028;-30
2022/07/19 17:20:47;;;;;;;8.50;7.60;;;27.20;43.30;;;;;;4615022;60;21506;-36
2022/07/19 17:25:48;;;;;;;9.32;8.32;;;27.20;43.30;;;;;;4615519;57;21498;-32
2022/07/19 17:30:49;;;;;;;8.73;7.60;;;27.20;43.30;;;;;;5010763;56;21132;-28
2022/07/19 17:35:49;;;;;;;8.95;7.65;;;27.20;43.40;;;;;;4615522;56;21020;-30
2022/07/19 17:40:50;;;;;;;8.85;7.85;;;27.20;43.40;;;;;;4855275;56;21024;-32
2022/07/19 17:45:51;;;;;;;9.05;8.15;;;27.30;43.50;;;;;;4615037;60;21526;-33
2022/07/19 17:50:52;;;;;;;8.82;7.93;;;27.20;43.50;;;;;;4678323;56;21451;-31
2022/07/19 17:55:53;;;;;;;8.70;7.80;;;27.20;43.50;;;;;;4682802;56;21061;-31
2022/07/19 18:00:53;;;;;;;8.75;7.75;;;27.20;43.50;;;;;;4768704;56;21037;-30
2022/07/19 18:05:54;;;;;;;8.90;8.02;;;27.30;43.60;;;;;;4683468;56;21560;-31
2022/07/19 18:10:55;;;;;;;7.97;7.18;;;27.30;43.70;;;;;;4833007;56;21072;-30
2022/07/19 18:15:56;;;;;;;8.98;7.75;;;27.20;44.30;;;;;;4676526;56;21021;-30
2022/07/19 18:20:57;;;;;;;8.95;8.05;;;27.30;43.70;;;;;;4614707;60;21039;-30
2022/07/19 18:25:58;;;;;;;8.75;7.85;;;27.30;43.80;;;;;;4630123;56;21035;-30
2022/07/19 18:30:59;;;;;;;9.13;7.80;;;27.30;43.80;;;;;;4826950;56;21146;-31
2022/07/19 18:35:59;;;;;;;8.70;7.80;;;27.30;43.90;;;;;;4706563;56;21032;-33
2022/07/19 18:41:00;;;;;;;8.32;7.53;;;27.30;43.80;;;;;;4855059;56;21031;-35
2022/07/19 18:46:01;;;;;;;8.82;7.93;;;27.20;43.80;;;;;;4744882;56;21008;-33
2022/07/19 18:51:04;;;;;;;8.88;7.95;;;27.20;43.80;;;;;;4614939;58;21028;-31
2022/07/19 18:56:06;;;;;;;8.88;7.95;;;27.30;43.90;;;;;;4614146;60;21057;-36
2022/07/19 19:01:08;;;;;;;9.40;7.90;;;27.30;43.90;;;;;;4646017;56;21071;-33
2022/07/19 19:06:08;;;;;;;8.73;7.90;;;27.30;43.90;;;;;;4614919;60;21013;-34
2022/07/19 19:11:09;;;;;;;8.48;7.65;;;27.30;43.90;;;;;;4615286;60;21040;-31
2022/07/19 19:16:10;;;;;;;9.88;7.87;;;27.20;43.80;;;;;;4824671;56;21869;-34
2022/07/19 19:21:11;;;;;;;8.82;7.32;;;27.30;43.90;;;;;;4634644;56;21526;-30
2022/07/19 19:26:12;;;;;;;8.40;7.50;;;27.30;44.00;;;;;;4700787;56;20996;-35
2022/07/19 19:31:13;;;;;;;8.80;7.72;;;27.20;43.90;;;;;;4668740;56;21092;-33
2022/07/19 19:36:13;;;;;;;8.63;7.72;;;27.30;44.00;;;;;;4666824;56;21075;-32
2022/07/19 19:41:14;;;;;;;8.88;7.95;;;27.20;43.90;;;;;;4749644;56;21016;-29
2022/07/19 19:46:18;;;;;;;9.20;7.65;;;27.20;43.90;;;;;;4615369;60;21462;-33
2022/07/19 19:51:18;;;;;;;8.90;8.02;;;27.20;43.90;;;;;;4656828;56;21008;-32
2022/07/19 19:56:19;;;;;;;8.88;7.90;;;27.30;44.00;;;;;;4695278;56;21084;-28
2022/07/19 20:01:20;;;;;;;9.82;7.45;;;27.30;44.00;;;;;;5067629;56;21035;-34
2022/07/19 20:06:21;;;;;;;8.02;7.22;;;27.20;44.00;;;;;;4640604;56;21020;-36
2022/07/19 20:11:22;;;;;;;8.85;7.95;;;27.20;44.00;;;;;;4771775;56;21012;-35
2022/07/19 20:16:23;;;;;;;8.85;7.95;;;27.20;44.00;;;;;;4851171;56;21115;-32
2022/07/19 20:21:24;;;;;;;8.57;7.68;;;27.20;44.00;;;;;;4615041;60;21043;-33
2022/07/19 20:26:24;;;;;;;8.40;7.50;;;27.20;44.10;;;;;;4680934;56;21076;-32
2022/07/19 20:31:25;;;;;;;8.63;7.78;;;27.20;44.10;;;;;;4786585;56;21518;-33
2022/07/19 20:36:26;;;;;;;8.98;7.45;;;27.20;44.10;;;;;;4835297;56;21033;-31
2022/07/19 20:41:27;;;;;;;8.88;7.43;;;27.20;44.20;;;;;;4615552;56;21563;-33
2022/07/19 20:46:28;;;;;;;8.23;7.28;;;27.20;44.20;;;;;;4615812;57;21032;-35
2022/07/19 20:51:29;;;;;;;8.43;7.35;;;27.20;44.10;;;;;;4615146;60;21136;-28
2022/07/19 20:56:31;;;;;;;8.23;7.43;;;27.20;44.10;;;;;;4657372;56;21116;-34
2022/07/19 21:01:35;;;;;;;8.50;7.62;;;27.20;44.10;;;;;;4744757;56;21091;-34
2022/07/19 21:06:37;;;;;;;7.62;6.90;;;27.20;44.10;;;;;;4615232;60;21076;-32
2022/07/19 21:11:38;;;;;;;8.45;7.55;;;27.20;44.10;;;;;;4797827;56;21092;-33
2022/07/19 21:16:39;;;;;;;8.35;7.45;;;27.20;44.10;;;;;;4649601;56;21060;-32
2022/07/19 21:21:39;;;;;;;9.55;7.60;;;27.20;44.10;;;;;;4615240;60;21510;-30
2022/07/19 21:26:40;;;;;;;9.25;7.50;;;27.20;44.20;;;;;;4652795;56;21065;-34
2022/07/19 21:31:41;;;;;;;7.82;7.03;;;27.20;44.10;;;;;;4615415;56;21104;-30
2022/07/19 21:36:42;;;;;;;9.05;6.57;;;27.20;44.10;;;;;;4614100;60;21084;-29
2022/07/19 21:41:43;;;;;;;7.70;6.90;;;27.20;44.10;;;;;;4673643;56;21076;-31
2022/07/19 21:46:44;;;;;;;11.05;7.25;;;27.20;44.30;;;;;;4651008;56;21010;-28
2022/07/19 21:51:45;;;;;;;8.13;7.00;;;27.20;44.40;;;;;;4615030;60;21024;-33
2022/07/19 21:56:46;;;;;;;7.40;6.70;;;27.20;44.40;;;;;;4699629;56;21491;-31
2022/07/19 22:01:47;;;;;;;7.32;6.53;;;27.20;44.60;;;;;;4615249;60;21017;-37
2022/07/19 22:06:48;;;;;;;7.53;6.68;;;27.20;44.60;;;;;;4782587;56;21072;-32
2022/07/19 22:11:49;;;;;;;7.70;6.45;;;27.20;44.50;;;;;;4650248;56;21096;-31
2022/07/19 22:16:50;;;;;;;7.82;6.60;;;27.20;44.70;;;;;;4663202;56;21033;-30
2022/07/19 22:21:51;;;;;;;7.10;6.40;;;27.20;44.80;;;;;;4671147;56;21116;-29
2022/07/19 22:26:52;;;;;;;8.05;6.90;;;27.20;44.80;;;;;;4791814;56;21020;-33
2022/07/19 22:31:52;;;;;;;7.18;6.32;;;27.20;44.90;;;;;;4768277;56;21029;-35
2022/07/19 22:36:53;;;;;;;7.20;6.50;;;27.20;44.80;;;;;;4614125;60;21032;-34
2022/07/19 22:41:54;;;;;;;7.10;6.37;;;27.20;45.00;;;;;;4615025;60;21454;-35
2022/07/19 22:46:55;;;;;;;6.87;5.68;;;27.20;45.00;;;;;;4615071;60;21076;-33
2022/07/19 22:51:56;;;;;;;6.97;6.18;;;27.20;45.10;;;;;;4786309;56;21037;-31
2022/07/19 22:56:57;;;;;;;7.85;6.35;;;27.20;45.10;;;;;;4646680;56;20996;-29
2022/07/19 23:01:57;;;;;;;7.12;6.12;;;27.20;45.20;;;;;;4626644;56;21115;-29
2022/07/19 23:06:58;;;;;;;7.25;6.22;;;27.20;45.20;;;;;;4645060;56;21072;-30
2022/07/19 23:11:59;;;;;;;6.75;6.03;;;27.20;45.40;;;;;;4829286;56;21012;-30
2022/07/19 23:17:00;;;;;;;6.82;6.12;;;27.20;45.20;;;;;;4700411;56;21089;-30
2022/07/19 23:22:01;;;;;;;8.30;6.00;;;27.20;45.30;;;;;;4780971;56;21040;-29
2022/07/19 23:27:02;;;;;;;6.65;6.05;;;27.20;45.40;;;;;;4715680;56;21511;-34
2022/07/19 23:32:04;;;;;;;6.45;5.78;;;27.20;45.30;;;;;;4637446;56;21005;-34
2022/07/19 23:37:04;;;;;;;6.60;5.78;;;27.20;45.40;;;;;;4614712;56;21020;-34
2022/07/19 23:42:05;;;;;;;7.22;5.40;;;27.20;45.40;;;;;;4710791;56;21012;-32
2022/07/19 23:47:06;;;;;;;6.03;5.43;;;27.20;46.10;;;;;;4755084;56;21016;-31
2022/07/19 23:52:07;;;;;;;6.25;5.65;;;27.20;45.60;;;;;;4615581;57;21104;-30
2022/07/19 23:57:08;;;;;;;5.90;5.30;;;27.20;45.80;;;;;;4689318;56;21032;-32
